首页
METAR-TAF:

METAR-TAF

机场 :

乃磨機場

纳奈莫, 不列颠哥伦比亚, 加拿大

纬度: 49-03N, 经度: 123-52W, 海拔: 28米

当前天气观测

该预报发布于53分钟前的20:00 UTC
风速5节,风向西北
温度 13°C
湿度 94%
气压 1016 hPa
能見度: 24.1公里
多云层高于400英尺

METAR: CYCD 172000Z 31005KT 15SM BKN004 13/12 A3000 RMK SF5 VSBY SW - NW 3NM SLP160

时间: 12:53 (20:53 UTC)

预报

该预报发布于38分钟前的20:15 UTC
预报有效从17日的 20点(UTC)到 18日的 05点(UTC)
风速3节,风向多变
能見度: 8.0公里
多云层高于400英尺
轻雾
短暂存在
从 17日的 20点(UTC)到 17日的 22点(UTC)
能見度: 10公里
散云层高于400英尺
从 17日的 2200点(UTC)
风速3节,风向多变
能見度: 10公里
少量云层高于500英尺
几率 30%
从 18日的 03点(UTC)到 18日的 05点(UTC)
能見度: 1.6公里
轻雾

TAF: CYCD 172015Z 1720/1805 VRB03KT 5SM BR BKN004 TEMPO 1720/1722 P6SM NSW SCT004 FM172200 VRB03KT P6SM FEW005 PROB30 1803/1805 1SM BR RMK NXT FCST BY 180000Z

超过4000个机场的气象观测和天气预报(METAR&TAF报告)。

可查询的气象台以黄色和红色小点在地图上表示。

将鼠标移到小点上方,可查看气象台名称。

然后点击查看天气观测和预报。

如需切换地图:点击带黑十字的绿色按钮放大地图;点击带横线的绿色按钮缩小地图;或者点击绿色箭头查看邻近地区的地图。


METAR-TAF: